Time;durP1;ratioP1;P1;durP2;ratioP2;P2;SDS_P1;SDS_P2;PMS_P1;PMS_P2;Temp;Humidity;BMP_temperature;BMP_pressure;BME280_temperature;BME280_humidity;BME280_pressure;Samples;Min_cycle;Max_cycle;Signal;HPM_P1;HPM_P2
2022/11/16 00:01:33;;;;;;;12.52;11.93;;;9.80;94.10;;;;;;4855662;29;20034;-80
2022/11/16 00:04:01;;;;;;;11.88;11.38;;;9.80;94.10;;;;;;4839025;29;20483;-80
2022/11/16 00:06:28;;;;;;;11.50;11.00;;;9.80;94.20;;;;;;4855587;29;20490;-80
2022/11/16 00:11:41;;;;;;;15.68;14.98;;;9.80;94.20;;;;;;4846864;29;20060;-77
2022/11/16 00:14:08;;;;;;;16.80;16.10;;;9.80;94.20;;;;;;4820540;29;20034;-77
2022/11/16 00:16:33;;;;;;;19.20;18.40;;;9.80;94.20;;;;;;4835835;29;20102;-77
2022/11/16 00:19:02;;;;;;;20.67;19.88;;;9.80;94.20;;;;;;4820765;29;20487;-78
2022/11/16 00:21:28;;;;;;;20.02;19.23;;;9.80;94.10;;;;;;4837299;29;20030;-78
2022/11/16 00:23:54;;;;;;;19.20;18.40;;;9.80;94.10;;;;;;4835791;29;20030;-78
2022/11/16 00:26:20;;;;;;;22.50;21.60;;;9.80;94.10;;;;;;4820666;29;20083;-78
2022/11/16 00:28:47;;;;;;;24.42;23.42;;;9.80;94.00;;;;;;4839409;29;20038;-78
2022/11/16 00:31:13;;;;;;;21.05;20.25;;;9.70;93.90;;;;;;4809170;29;20034;-77
2022/11/16 00:33:39;;;;;;;23.60;22.70;;;9.60;93.80;;;;;;4840755;29;20499;-77
2022/11/16 00:36:07;;;;;;;23.10;22.20;;;9.50;93.80;;;;;;4823795;29;20098;-77
2022/11/16 00:38:33;;;;;;;22.38;21.48;;;9.40;93.80;;;;;;4839163;29;20029;-77
2022/11/16 00:40:59;;;;;;;22.20;21.30;;;9.30;93.90;;;;;;4823917;29;20090;-77
2022/11/16 00:43:25;;;;;;;24.17;23.23;;;9.20;93.90;;;;;;4823966;29;20133;-76
2022/11/16 00:45:51;;;;;;;22.90;22.00;;;9.10;93.90;;;;;;4840156;29;20392;-75
2022/11/16 00:48:17;;;;;;;23.45;22.55;;;9.10;93.90;;;;;;4823769;29;20038;-76
2022/11/16 00:50:44;;;;;;;24.65;23.65;;;9.00;93.90;;;;;;4840524;29;20026;-75
2022/11/16 00:53:13;;;;;;;23.60;22.70;;;9.00;93.90;;;;;;4840480;29;20041;-77
2022/11/16 00:55:39;;;;;;;23.60;22.70;;;9.00;93.80;;;;;;4839048;29;20034;-76
2022/11/16 00:58:04;;;;;;;23.48;22.58;;;8.90;93.80;;;;;;4840100;29;20074;-76
2022/11/16 01:00:30;;;;;;;25.85;24.85;;;8.90;93.90;;;;;;4840287;29;20452;-76
2022/11/16 01:02:56;;;;;;;24.42;23.45;;;8.80;93.80;;;;;;4839058;29;20338;-76
2022/11/16 01:05:22;;;;;;;27.60;26.50;;;8.80;93.80;;;;;;4823739;29;20042;-76
2022/11/16 01:07:48;;;;;;;;;;;8.70;93.80;;;;;;4823857;29;20479;-77
2022/11/16 01:10:17;;;;;;;24.15;23.25;;;8.70;93.90;;;;;;4840426;29;20631;-76
2022/11/16 01:12:45;;;;;;;28.42;27.33;;;8.60;93.80;;;;;;4823431;29;20056;-76
2022/11/16 01:15:11;;;;;;;30.20;29.05;;;8.60;93.90;;;;;;4838564;29;20073;-77
2022/11/16 01:17:38;;;;;;;28.35;27.25;;;8.50;93.90;;;;;;4838572;29;20038;-76
2022/11/16 01:20:07;;;;;;;31.65;30.45;;;8.40;94.00;;;;;;4839915;29;20038;-76
2022/11/16 01:22:37;;;;;;;31.27;30.08;;;8.40;94.00;;;;;;4823134;29;20082;-76
2022/11/16 01:25:03;;;;;;;28.00;26.90;;;8.40;94.00;;;;;;4838320;29;20039;-76
2022/11/16 01:27:29;;;;;;;29.25;28.15;;;8.40;94.00;;;;;;4823090;29;20038;-76
2022/11/16 01:29:55;;;;;;;30.65;29.45;;;8.30;94.00;;;;;;4839807;29;20037;-76
2022/11/16 01:32:21;;;;;;;32.28;31.08;;;8.30;94.10;;;;;;4839554;29;20042;-76
2022/11/16 01:34:46;;;;;;;30.23;29.02;;;8.30;94.10;;;;;;4839630;29;20030;-75
2022/11/16 01:37:12;;;;;;;34.20;32.90;;;8.30;94.10;;;;;;4839724;29;20041;-78
2022/11/16 01:39:38;;;;;;;34.92;33.63;;;8.30;94.00;;;;;;4822943;29;20042;-76
2022/11/16 01:42:04;;;;;;;35.10;33.80;;;8.30;94.00;;;;;;4822936;29;20053;-77
2022/11/16 01:44:33;;;;;;;36.40;35.00;;;8.20;93.90;;;;;;4823071;29;20044;-77
2022/11/16 01:47:01;;;;;;;31.95;30.75;;;8.20;94.00;;;;;;4839439;29;20053;-77
2022/11/16 01:49:30;;;;;;;33.28;32.03;;;8.20;94.00;;;;;;4837984;29;20503;-80
2022/11/16 01:52:03;;;;;;;32.10;30.90;;;8.20;94.00;;;;;;4839126;29;20037;-78
2022/11/16 01:54:31;;;;;;;31.05;29.85;;;8.20;94.10;;;;;;4837881;29;20033;-80
2022/11/16 01:57:01;;;;;;;32.15;30.95;;;8.20;94.10;;;;;;4839131;29;20036;-80
2022/11/16 01:59:28;;;;;;;32.22;31.02;;;8.30;94.20;;;;;;4837949;29;20109;-80
2022/11/16 02:01:54;;;;;;;34.33;33.03;;;8.40;94.30;;;;;;4822766;29;20037;-78
2022/11/16 02:04:20;;;;;;;25.77;24.77;;;8.40;94.20;;;;;;4839187;29;20395;-78
2022/11/16 02:07:17;;;;;;;29.48;28.38;;;8.40;94.20;;;;;;4807387;29;20045;-79
2022/11/16 02:09:54;;;;;;;32.05;30.85;;;8.50;94.20;;;;;;4822355;29;20022;-81
2022/11/16 02:12:59;;;;;;;30.65;29.45;;;8.50;94.20;;;;;;4838937;29;20452;-77
2022/11/16 02:15:40;;;;;;;28.85;27.75;;;8.60;94.20;;;;;;4810683;29;20034;-78
2022/11/16 02:18:36;;;;;;;31.40;30.20;;;8.60;94.20;;;;;;4838994;29;20033;-76
2022/11/16 02:21:07;;;;;;;33.03;31.77;;;8.70;94.10;;;;;;4838799;29;20034;-77
2022/11/16 02:23:55;;;;;;;36.22;34.83;;;8.70;94.00;;;;;;4838688;29;20034;-75
2022/11/16 02:26:23;;;;;;;;;;;8.70;93.90;;;;;;4839076;29;20026;-74
2022/11/16 02:29:23;;;;;;;31.85;30.65;;;8.70;93.90;;;;;;4822018;29;20442;-77
2022/11/16 02:32:14;;;;;;;37.00;35.60;;;8.70;93.90;;;;;;4838674;29;20117;-77
2022/11/16 02:34:51;;;;;;;34.75;33.45;;;8.70;93.90;;;;;;4828495;29;20037;-77
2022/11/16 02:37:19;;;;;;;32.78;31.58;;;8.80;93.90;;;;;;4838610;29;20034;-77
2022/11/16 02:39:50;;;;;;;33.53;32.22;;;8.90;94.00;;;;;;4838464;29;20446;-80
2022/11/16 02:42:21;;;;;;;30.30;29.10;;;8.90;94.00;;;;;;4843887;29;20034;-81
2022/11/16 02:44:51;;;;;;;35.65;34.35;;;8.90;94.00;;;;;;4839440;29;20030;-81
2022/11/16 02:47:22;;;;;;;35.00;33.70;;;9.00;94.00;;;;;;4821879;29;20041;-80
2022/11/16 02:49:58;;;;;;;33.72;32.42;;;9.00;94.10;;;;;;4836336;29;20482;-81
2022/11/16 02:52:25;;;;;;;33.42;32.13;;;9.10;94.10;;;;;;4838322;29;20030;-81
2022/11/16 02:54:51;;;;;;;34.60;33.30;;;9.10;94.00;;;;;;4821681;29;20151;-80
2022/11/16 02:57:22;;;;;;;33.00;31.80;;;9.20;94.00;;;;;;4838207;29;20523;-81
2022/11/16 02:59:54;;;;;;;33.78;32.47;;;9.20;94.00;;;;;;4838129;29;20046;-81
2022/11/16 03:02:23;;;;;;;33.70;32.40;;;9.20;94.00;;;;;;4838095;29;20037;-81
2022/11/16 03:04:57;;;;;;;34.40;33.10;;;9.20;93.90;;;;;;4821638;29;20030;-81
2022/11/16 03:07:29;;;;;;;35.03;33.72;;;9.10;93.90;;;;;;4837853;29;20109;-81
2022/11/16 03:09:56;;;;;;;33.17;31.88;;;9.10;93.90;;;;;;4838153;29;20034;-77
2022/11/16 03:12:28;;;;;;;34.22;32.92;;;9.00;94.00;;;;;;4837695;29;20081;-77
2022/11/16 03:14:57;;;;;;;35.50;34.20;;;9.00;94.00;;;;;;4836603;29;20066;-77
2022/11/16 03:17:29;;;;;;;32.72;31.52;;;8.90;94.00;;;;;;4837848;29;20446;-76
2022/11/16 03:20:07;;;;;;;36.10;34.70;;;8.80;94.00;;;;;;4821493;29;20106;-76
2022/11/16 03:22:42;;;;;;;34.00;32.70;;;8.80;94.10;;;;;;4837918;29;20447;-76
2022/11/16 03:25:15;;;;;;;31.63;30.42;;;8.70;94.10;;;;;;4837825;29;20034;-76
2022/11/16 03:27:56;;;;;;;33.13;31.88;;;8.70;94.10;;;;;;4821134;29;20470;-76
2022/11/16 03:30:24;;;;;;;36.38;34.97;;;8.60;94.10;;;;;;4821417;29;20407;-76
2022/11/16 03:32:53;;;;;;;33.13;31.88;;;8.50;94.00;;;;;;4836279;29;20034;-80
2022/11/16 03:35:26;;;;;;;35.13;33.83;;;8.40;94.00;;;;;;4837607;29;20026;-80
2022/11/16 03:37:55;;;;;;;34.25;32.95;;;8.30;94.00;;;;;;4837469;29;20043;-80
2022/11/16 03:40:23;;;;;;;37.15;35.75;;;8.20;94.00;;;;;;4836079;29;20503;-81
2022/11/16 03:42:49;;;;;;;33.47;32.20;;;8.20;94.00;;;;;;4837472;29;20044;-80
2022/11/16 03:45:17;;;;;;;33.53;32.22;;;8.10;94.00;;;;;;4820877;29;20034;-80
2022/11/16 03:47:44;;;;;;;34.10;32.80;;;8.00;94.00;;;;;;4821400;29;20124;-80
2022/11/16 03:50:10;;;;;;;35.58;34.28;;;8.00;94.00;;;;;;4837411;29;20034;-80
2022/11/16 03:52:36;;;;;;;;;;;7.90;94.00;;;;;;4837878;29;20037;-80
2022/11/16 03:55:02;;;;;;;36.55;35.15;;;7.90;94.00;;;;;;4805015;29;19912;-80
2022/11/16 03:57:28;;;;;;;37.35;35.95;;;7.80;93.90;;;;;;4837255;29;20037;-80
2022/11/16 03:59:53;;;;;;;42.17;40.58;;;7.80;93.90;;;;;;4820938;29;20038;-80
2022/11/16 04:02:19;;;;;;;42.78;41.17;;;7.70;93.90;;;;;;4820820;29;20038;-80
2022/11/16 04:24:13;;;;;;;42.58;40.97;;;7.20;93.90;;;;;;4837322;29;20045;-80
2022/11/16 04:29:28;;;;;;;39.65;38.15;;;7.10;93.90;;;;;;4837192;29;20040;-80
2022/11/16 04:40:07;;;;;;;44.40;42.75;;;6.80;93.90;;;;;;4836986;29;20045;-80
2022/11/16 04:42:33;;;;;;;42.92;41.33;;;6.60;93.90;;;;;;4805496;29;20044;-80
2022/11/16 04:47:43;;;;;;;47.30;45.50;;;6.60;94.00;;;;;;4837042;29;20090;-76
2022/11/16 04:50:09;;;;;;;45.58;43.88;;;6.70;94.00;;;;;;4820512;29;20069;-76
2022/11/16 04:52:34;;;;;;;48.33;46.53;;;6.70;93.90;;;;;;4820408;29;20045;-76
2022/11/16 04:55:00;;;;;;;49.00;47.20;;;6.70;93.90;;;;;;4836818;29;20635;-76
2022/11/16 04:57:26;;;;;;;47.20;45.40;;;6.70;93.80;;;;;;4836528;29;20034;-76
2022/11/16 04:59:51;;;;;;;44.65;42.95;;;6.80;93.80;;;;;;4820257;29;20086;-76
2022/11/16 05:02:17;;;;;;;48.60;46.80;;;6.70;93.70;;;;;;4805006;29;20121;-76
2022/11/16 05:04:44;;;;;;;48.35;46.55;;;6.70;93.70;;;;;;4820471;29;20379;-76
2022/11/16 05:07:11;;;;;;;;;;;6.70;93.80;;;;;;4835662;29;20479;-76
2022/11/16 05:09:42;;;;;;;47.63;45.83;;;6.70;93.80;;;;;;4836488;29;19947;-76
2022/11/16 05:12:22;;;;;;;45.25;43.55;;;6.70;93.70;;;;;;4836417;29;20491;-77
2022/11/16 05:14:48;;;;;;;46.08;44.38;;;6.70;93.70;;;;;;4839950;29;20034;-77
2022/11/16 05:17:15;;;;;;;44.83;43.13;;;6.70;93.70;;;;;;4808468;29;20552;-77
2022/11/16 05:22:25;;;;;;;42.13;40.53;;;6.60;93.70;;;;;;4839880;29;20041;-77
2022/11/16 05:24:51;;;;;;;44.05;42.40;;;6.60;93.70;;;;;;4823229;29;20030;-80
2022/11/16 05:27:18;;;;;;;43.50;41.90;;;6.60;93.70;;;;;;4823274;29;20045;-80
2022/11/16 05:29:45;;;;;;;43.70;42.10;;;6.60;93.70;;;;;;4823294;29;20038;-80
2022/11/16 05:32:12;;;;;;;44.33;42.63;;;6.60;93.70;;;;;;4838320;29;20034;-80
2022/11/16 05:34:38;;;;;;;45.10;43.40;;;6.60;93.70;;;;;;4839393;29;20030;-80
2022/11/16 05:37:04;;;;;;;40.15;38.65;;;6.50;93.60;;;;;;4839465;29;20034;-80
2022/11/16 05:39:29;;;;;;;42.95;41.35;;;6.50;93.60;;;;;;4839544;29;20037;-80
2022/11/16 05:41:55;;;;;;;42.83;41.22;;;6.50;93.70;;;;;;4839423;29;20403;-80
2022/11/16 05:44:22;;;;;;;42.55;40.95;;;6.40;93.70;;;;;;4839448;29;20038;-78
2022/11/16 05:46:48;;;;;;;43.35;41.75;;;6.30;93.70;;;;;;4823340;29;20429;-77
2022/11/16 05:49:14;;;;;;;41.53;39.92;;;6.20;93.70;;;;;;4822776;29;20491;-77
2022/11/16 05:51:41;;;;;;;;;;;6.10;93.80;;;;;;4838493;29;20049;-77
2022/11/16 05:54:07;;;;;;;39.33;37.83;;;6.10;93.80;;;;;;4822915;29;19913;-78
2022/11/16 05:56:33;;;;;;;43.10;41.50;;;6.10;93.70;;;;;;4839288;29;20038;-78
2022/11/16 05:58:59;;;;;;;;;;;6.00;93.70;;;;;;4839918;29;20022;-78
2022/11/16 06:01:25;;;;;;;40.75;39.25;;;6.00;93.80;;;;;;4839344;29;19977;-78
2022/11/16 06:03:51;;;;;;;;;;;5.90;93.70;;;;;;4839717;29;20402;-78
2022/11/16 06:06:17;;;;;;;39.85;38.35;;;5.90;93.80;;;;;;4839210;29;19991;-78
2022/11/16 06:08:43;;;;;;;37.03;35.63;;;5.90;93.70;;;;;;4839006;29;20033;-78
2022/11/16 06:11:09;;;;;;;41.70;40.10;;;5.90;93.80;;;;;;4839025;29;20057;-77
2022/11/16 06:13:35;;;;;;;;;;;5.90;93.80;;;;;;4839502;29;20030;-77
2022/11/16 06:16:03;;;;;;;41.10;39.58;;;5.90;93.80;;;;;;4838710;29;19932;-78
2022/11/16 06:18:29;;;;;;;38.65;37.15;;;5.90;93.70;;;;;;4839535;29;20399;-78
2022/11/16 06:20:55;;;;;;;38.90;37.40;;;5.90;93.70;;;;;;4822803;29;20133;-76
2022/11/16 06:23:21;;;;;;;40.17;38.67;;;5.90;93.70;;;;;;4822647;29;20117;-78
2022/11/16 06:25:53;;;;;;;38.13;36.72;;;5.90;93.70;;;;;;4821407;29;20034;-79
2022/11/16 06:28:19;;;;;;;42.33;40.72;;;5.80;93.70;;;;;;4838626;29;20038;-78
2022/11/16 06:30:46;;;;;;;39.47;37.97;;;5.90;93.70;;;;;;4822289;29;20040;-77
2022/11/16 06:33:12;;;;;;;37.30;35.90;;;5.80;93.70;;;;;;4822395;29;20038;-79
2022/11/16 06:35:37;;;;;;;38.13;36.72;;;5.80;93.70;;;;;;4838488;29;20041;-80
2022/11/16 06:38:03;;;;;;;36.95;35.55;;;5.90;93.70;;;;;;4806674;29;20080;-80
2022/11/16 06:40:29;;;;;;;35.22;33.92;;;5.90;93.70;;;;;;4838291;29;20373;-80
2022/11/16 06:42:56;;;;;;;37.00;35.60;;;5.90;93.70;;;;;;4837102;29;20034;-80
2022/11/16 06:45:22;;;;;;;35.17;33.85;;;5.80;93.70;;;;;;4806620;29;20061;-80
2022/11/16 06:47:48;;;;;;;38.08;36.65;;;5.80;93.70;;;;;;4838211;29;20042;-78
2022/11/16 06:50:17;;;;;;;38.50;37.00;;;5.80;93.70;;;;;;4822146;29;20041;-78
2022/11/16 06:52:45;;;;;;;38.22;36.80;;;5.80;93.70;;;;;;4838306;29;20372;-78
2022/11/16 06:55:10;;;;;;;36.70;35.30;;;5.80;93.70;;;;;;4821921;29;20049;-78
2022/11/16 06:57:36;;;;;;;35.97;34.58;;;5.80;93.70;;;;;;4821483;29;20041;-77
2022/11/16 07:00:03;;;;;;;39.08;37.58;;;5.70;93.60;;;;;;4806450;29;20034;-78
2022/11/16 07:02:29;;;;;;;34.42;33.13;;;5.70;93.80;;;;;;4836702;29;20030;-78
2022/11/16 07:04:55;;;;;;;33.33;32.03;;;5.60;93.60;;;;;;4836665;29;20045;-80
2022/11/16 07:07:20;;;;;;;34.70;33.40;;;5.50;93.60;;;;;;4837642;29;20045;-80
2022/11/16 07:09:46;;;;;;;37.53;36.13;;;5.50;93.70;;;;;;4821282;29;20495;-75
2022/11/16 07:12:12;;;;;;;37.53;36.13;;;5.40;93.70;;;;;;4837451;29;20538;-79
2022/11/16 07:14:38;;;;;;;34.20;32.90;;;5.40;93.80;;;;;;4821302;29;20034;-79
2022/11/16 07:17:03;;;;;;;35.80;34.40;;;5.40;93.70;;;;;;4837476;29;20460;-79
2022/11/16 07:19:29;;;;;;;35.97;34.58;;;5.30;93.70;;;;;;4821775;29;20109;-78
2022/11/16 07:21:55;;;;;;;35.90;34.50;;;5.30;93.80;;;;;;4837804;29;20349;-80
2022/11/16 07:24:20;;;;;;;36.03;34.63;;;5.20;93.70;;;;;;4806167;29;20452;-79
2022/11/16 07:26:46;;;;;;;33.88;32.58;;;5.30;93.70;;;;;;4821123;29;20033;-80
2022/11/16 07:29:12;;;;;;;34.85;33.55;;;5.20;93.60;;;;;;4821068;29;20057;-80
2022/11/16 07:31:38;;;;;;;35.22;33.92;;;5.20;93.60;;;;;;4820784;29;20121;-77
2022/11/16 07:34:04;;;;;;;33.65;32.35;;;5.20;93.60;;;;;;4820977;29;20038;-77
2022/11/16 07:36:30;;;;;;;34.03;32.72;;;5.10;93.60;;;;;;4820950;29;20045;-77
2022/11/16 07:38:56;;;;;;;36.72;35.33;;;5.10;93.60;;;;;;4835856;29;20038;-75
2022/11/16 07:41:21;;;;;;;34.83;33.53;;;5.10;93.60;;;;;;4821369;29;20458;-77
2022/11/16 07:43:47;;;;;;;40.10;38.60;;;5.10;93.60;;;;;;4821381;29;20553;-78
2022/11/16 07:46:16;;;;;;;35.92;34.53;;;5.00;93.60;;;;;;4835957;29;20053;-75
2022/11/16 07:48:42;;;;;;;38.45;36.95;;;5.00;93.60;;;;;;4820833;29;20034;-79
2022/11/16 07:51:10;;;;;;;36.83;35.42;;;5.00;93.60;;;;;;4820993;29;20045;-78
2022/11/16 07:53:36;;;;;;;35.85;34.45;;;5.00;93.60;;;;;;4837265;29;20090;-78
2022/11/16 07:56:03;;;;;;;38.45;36.95;;;5.00;93.60;;;;;;4821127;29;20485;-75
2022/11/16 07:58:32;;;;;;;34.65;33.35;;;5.00;93.60;;;;;;4805386;29;20045;-75
2022/11/16 08:01:13;;;;;;;36.28;34.88;;;5.00;93.60;;;;;;4835553;29;20053;-77
2022/11/16 08:03:40;;;;;;;34.08;32.78;;;5.10;93.60;;;;;;4836911;29;20022;-76
2022/11/16 08:06:15;;;;;;;37.08;35.67;;;5.10;93.60;;;;;;4836882;29;20029;-76
2022/11/16 08:08:41;;;;;;;38.40;36.90;;;5.10;93.60;;;;;;4835705;29;20121;-75
2022/11/16 08:11:08;;;;;;;38.17;36.67;;;5.20;93.60;;;;;;4820216;29;20616;-75
2022/11/16 08:13:36;;;;;;;37.33;35.92;;;5.30;93.60;;;;;;4837036;29;20078;-77
2022/11/16 08:16:06;;;;;;;35.78;34.38;;;5.30;93.60;;;;;;4837083;29;20488;-78
2022/11/16 08:18:32;;;;;;;35.65;34.28;;;5.30;93.60;;;;;;4837330;29;20121;-77
2022/11/16 08:20:59;;;;;;;37.25;35.85;;;5.40;93.60;;;;;;4820821;29;20050;-79
2022/11/16 08:23:24;;;;;;;;;;;5.40;93.60;;;;;;4820901;29;20075;-77
2022/11/16 08:25:50;;;;;;;35.80;34.40;;;5.40;93.60;;;;;;4836918;29;19912;-77
2022/11/16 08:28:16;;;;;;;37.33;35.92;;;5.50;93.60;;;;;;4820318;29;20483;-77
2022/11/16 08:30:41;;;;;;;37.10;35.70;;;5.60;93.50;;;;;;4820198;29;20045;-77
2022/11/16 08:33:08;;;;;;;35.65;34.30;;;5.60;93.50;;;;;;4836422;29;20400;-76
2022/11/16 08:35:35;;;;;;;34.75;33.45;;;5.60;93.50;;;;;;4820085;29;20049;-77
2022/11/16 08:38:01;;;;;;;34.20;32.90;;;5.60;93.50;;;;;;4820105;29;20102;-77
2022/11/16 08:40:27;;;;;;;34.85;33.55;;;5.60;93.60;;;;;;4820332;29;20113;-78
2022/11/16 08:42:55;;;;;;;35.85;34.45;;;5.60;93.70;;;;;;4835160;29;20034;-78
2022/11/16 08:45:22;;;;;;;35.90;34.50;;;5.60;93.70;;;;;;4819981;29;20029;-77
2022/11/16 08:47:48;;;;;;;35.63;34.22;;;5.60;93.80;;;;;;4837261;29;20826;-78
2022/11/16 08:50:15;;;;;;;35.38;33.97;;;5.70;93.80;;;;;;4825509;29;20030;-77
2022/11/16 08:52:41;;;;;;;33.35;32.05;;;5.80;93.90;;;;;;4823610;29;20602;-77
2022/11/16 08:55:07;;;;;;;24.38;23.38;;;5.90;94.00;;;;;;4823057;29;20128;-77
2022/11/16 08:57:32;;;;;;;14.23;13.63;;;6.10;94.60;;;;;;4839921;29;20137;-77
2022/11/16 08:59:58;;;;;;;13.43;12.82;;;6.90;95.90;;;;;;4807977;29;20030;-78
2022/11/16 09:02:26;;;;;;;9.30;8.82;;;7.90;96.50;;;;;;4839492;29;20038;-78
2022/11/16 09:04:52;;;;;;;7.85;7.45;;;9.10;96.60;;;;;;4825774;29;20042;-78
2022/11/16 09:07:18;;;;;;;;;;;10.30;96.50;;;;;;4841683;29;20205;-77
2022/11/16 09:09:44;;;;;;;1.70;1.60;;;11.30;96.30;;;;;;4857814;29;20014;-77
2022/11/16 09:12:10;;;;;;;2.88;2.67;;;12.20;96.20;;;;;;4869544;29;20061;-78
2022/11/16 09:14:36;;;;;;;1.30;1.20;;;13.00;96.10;;;;;;4859777;29;20463;-78
2022/11/16 09:17:01;;;;;;;0.63;0.63;;;13.70;96.00;;;;;;4875188;29;20037;-77
2022/11/16 09:19:27;;;;;;;0.60;0.60;;;14.30;95.70;;;;;;4859930;29;20108;-78
2022/11/16 09:21:53;;;;;;;0.88;0.88;;;14.50;95.30;;;;;;4876387;29;20036;-78
2022/11/16 09:24:18;;;;;;;0.40;0.40;;;14.90;95.60;;;;;;4859867;29;20116;-78
2022/11/16 09:26:44;;;;;;;0.30;0.30;;;15.30;95.80;;;;;;4866131;29;20037;-77
2022/11/16 09:29:12;;;;;;;0.20;0.20;;;15.80;95.70;;;;;;4847268;29;20144;-78
2022/11/16 09:31:37;;;;;;;0.20;0.20;;;16.10;95.70;;;;;;4850318;29;20033;-78
2022/11/16 09:34:03;;;;;;;0.20;0.20;;;16.40;95.90;;;;;;4851494;29;20049;-78
2022/11/16 09:36:29;;;;;;;0.17;0.17;;;16.70;95.80;;;;;;4865834;29;20518;-77
2022/11/16 09:38:55;;;;;;;;;;;17.10;96.00;;;;;;4852640;29;20062;-76
2022/11/16 09:41:29;;;;;;;0.10;0.10;;;17.50;96.10;;;;;;4868373;29;19919;-76
2022/11/16 09:44:05;;;;;;;0.35;0.30;;;17.90;95.90;;;;;;4867407;29;20398;-77
2022/11/16 09:46:36;;;;;;;0.20;0.20;;;18.20;95.70;;;;;;4847680;29;20395;-74
2022/11/16 09:49:07;;;;;;;0.05;0.05;;;18.50;95.60;;;;;;4859162;29;20048;-76
2022/11/16 09:51:36;;;;;;;0.00;0.00;;;18.80;95.60;;;;;;4858519;29;20033;-76
2022/11/16 09:54:07;;;;;;;0.00;0.00;;;19.00;95.50;;;;;;4860477;29;20029;-77
2022/11/16 09:56:36;;;;;;;0.00;0.00;;;19.20;95.50;;;;;;4869195;29;20098;-77
2022/11/16 09:59:08;;;;;;;0.00;0.00;;;19.40;95.40;;;;;;4875188;29;20033;-77
2022/11/16 10:01:46;;;;;;;0.00;0.00;;;19.50;95.40;;;;;;4866607;29;20043;-77
2022/11/16 10:04:23;;;;;;;0.00;0.00;;;19.70;95.50;;;;;;4865209;29;20017;-76
2022/11/16 10:06:49;;;;;;;0.00;0.00;;;19.90;95.60;;;;;;4840531;29;20041;-77
2022/11/16 10:09:14;;;;;;;;;;;20.10;95.70;;;;;;4867347;29;20025;-77
2022/11/16 10:12:03;;;;;;;0.00;0.00;;;20.30;95.80;;;;;;4874984;29;20581;-77
2022/11/16 10:14:47;;;;;;;0.00;0.00;;;20.60;95.90;;;;;;4877061;29;20498;-76
2022/11/16 10:17:43;;;;;;;0.00;0.00;;;20.80;95.70;;;;;;4870792;29;20041;-77
2022/11/16 10:20:46;;;;;;;0.00;0.00;;;20.80;95.40;;;;;;4873495;29;20036;-76
2022/11/16 10:23:21;;;;;;;0.00;0.00;;;21.00;95.60;;;;;;4854933;29;20021;-77
2022/11/16 10:25:56;;;;;;;0.00;0.00;;;21.10;95.70;;;;;;4866247;29;20026;-77
2022/11/16 10:28:43;;;;;;;0.00;0.00;;;21.30;95.80;;;;;;4858845;29;20026;-77
2022/11/16 10:31:17;;;;;;;0.00;0.00;;;21.50;95.80;;;;;;4860128;29;20030;-77
2022/11/16 10:33:45;;;;;;;0.00;0.00;;;21.70;95.70;;;;;;4876661;29;20478;-77
2022/11/16 10:36:13;;;;;;;0.00;0.00;;;21.80;95.70;;;;;;4867122;29;20113;-77
2022/11/16 10:38:41;;;;;;;0.00;0.00;;;21.90;95.80;;;;;;4869186;29;20447;-77
2022/11/16 10:41:16;;;;;;;0.00;0.00;;;22.10;95.80;;;;;;4867153;29;20040;-76
2022/11/16 10:43:43;;;;;;;0.00;0.00;;;22.20;95.80;;;;;;4859422;29;20331;-75
2022/11/16 10:46:51;;;;;;;0.00;0.00;;;22.30;95.90;;;;;;4866875;29;20076;-74
2022/11/16 10:49:29;;;;;;;;;;;22.40;95.90;;;;;;4822851;29;20435;-76
2022/11/16 10:51:55;;;;;;;0.00;0.00;;;22.50;96.00;;;;;;4869601;29;20334;-79
2022/11/16 10:54:21;;;;;;;0.00;0.00;;;22.60;96.10;;;;;;4874963;29;20045;-75
2022/11/16 10:56:55;;;;;;;0.00;0.00;;;22.70;96.10;;;;;;4859832;29;20121;-75
2022/11/16 10:59:35;;;;;;;0.00;0.00;;;22.80;96.00;;;;;;4857977;29;20025;-76
2022/11/16 11:02:35;;;;;;;0.00;0.00;;;22.90;96.30;;;;;;4857226;29;20133;-77
2022/11/16 11:05:15;;;;;;;0.00;0.00;;;23.10;96.40;;;;;;4857660;29;20061;-76
2022/11/16 11:07:47;;;;;;;0.00;0.00;;;23.10;96.40;;;;;;4857562;29;20697;-76
2022/11/16 11:10:25;;;;;;;0.00;0.00;;;23.10;96.40;;;;;;4857013;29;20501;-75
2022/11/16 11:13:09;;;;;;;0.00;0.00;;;23.20;96.50;;;;;;4857094;29;20057;-73
2022/11/16 11:15:36;;;;;;;0.00;0.00;;;23.30;96.50;;;;;;4839887;29;20386;-76
2022/11/16 11:18:23;;;;;;;0.00;0.00;;;23.20;96.60;;;;;;4856117;29;20036;-77
2022/11/16 11:21:05;;;;;;;0.00;0.00;;;23.10;96.90;;;;;;4851997;29;20038;-76
2022/11/16 11:23:42;;;;;;;0.00;0.00;;;23.10;96.80;;;;;;4840928;29;20045;-80
2022/11/16 11:26:34;;;;;;;0.00;0.00;;;23.30;97.10;;;;;;4857482;29;20026;-75
2022/11/16 11:29:04;;;;;;;0.00;0.00;;;23.40;97.00;;;;;;4856303;29;20089;-81
2022/11/16 11:31:46;;;;;;;0.00;0.00;;;23.50;96.80;;;;;;4857131;29;20061;-78
2022/11/16 11:34:39;;;;;;;0.00;0.00;;;23.60;96.80;;;;;;4857077;29;20027;-79
2022/11/16 11:37:31;;;;;;;0.00;0.00;;;23.70;96.90;;;;;;4855893;29;20037;-79
2022/11/16 11:40:23;;;;;;;0.00;0.00;;;23.80;96.80;;;;;;4856363;29;20048;-75
2022/11/16 11:42:53;;;;;;;0.00;0.00;;;24.00;97.00;;;;;;4855638;29;20026;-73
2022/11/16 11:45:24;;;;;;;0.00;0.00;;;24.00;96.80;;;;;;4855254;29;20043;-78
2022/11/16 11:47:59;;;;;;;0.10;0.03;;;23.90;96.70;;;;;;4857981;29;20449;-81
2022/11/16 11:50:35;;;;;;;0.00;0.00;;;23.70;96.60;;;;;;4857571;29;20391;-78
2022/11/16 11:53:14;;;;;;;0.00;0.00;;;23.40;96.70;;;;;;4857013;29;20097;-77
2022/11/16 11:55:40;;;;;;;0.00;0.00;;;23.10;96.70;;;;;;4855871;29;20391;-80
2022/11/16 11:58:13;;;;;;;0.00;0.00;;;22.90;96.90;;;;;;4840567;29;20037;-79
2022/11/16 12:01:09;;;;;;;0.00;0.00;;;22.80;96.90;;;;;;4855524;29;20029;-82
2022/11/16 12:03:44;;;;;;;0.00;0.00;;;22.60;96.80;;;;;;4856907;29;20026;-78
2022/11/16 12:06:20;;;;;;;0.00;0.00;;;22.20;97.10;;;;;;4857062;29;20040;-78
2022/11/16 12:09:02;;;;;;;0.00;0.00;;;22.10;97.30;;;;;;4849173;29;20361;-78
2022/11/16 12:11:47;;;;;;;0.00;0.00;;;22.20;97.30;;;;;;4845531;29;20140;-78
2022/11/16 12:14:33;;;;;;;0.00;0.00;;;22.10;97.40;;;;;;4857386;29;20037;-76
2022/11/16 12:17:20;;;;;;;0.00;0.00;;;22.20;97.60;;;;;;4873280;29;20497;-77
2022/11/16 12:20:27;;;;;;;0.00;0.00;;;22.40;97.50;;;;;;4856205;29;20026;-78
2022/11/16 12:23:30;;;;;;;0.00;0.00;;;22.40;97.30;;;;;;4828985;29;20041;-76
2022/11/16 12:26:19;;;;;;;0.00;0.00;;;22.20;96.40;;;;;;4861613;29;20030;-76
2022/11/16 12:29:26;;;;;;;0.00;0.00;;;21.40;95.80;;;;;;4868597;29;20034;-79
2022/11/16 12:32:21;;;;;;;0.00;0.00;;;20.70;95.70;;;;;;4803686;29;20393;-78
2022/11/16 12:35:20;;;;;;;0.00;0.00;;;19.70;95.50;;;;;;4806302;29;20030;-79
2022/11/16 12:37:57;;;;;;;0.00;0.00;;;18.90;95.70;;;;;;4853766;29;20423;-76
2022/11/16 12:40:22;;;;;;;0.00;0.00;;;18.20;95.30;;;;;;4879170;29;20096;-77
2022/11/16 12:43:00;;;;;;;0.00;0.00;;;17.70;95.20;;;;;;4876024;29;20515;-77
2022/11/16 12:45:45;;;;;;;0.00;0.00;;;17.20;95.00;;;;;;4844982;29;20451;-77
2022/11/16 12:48:16;;;;;;;0.00;0.00;;;16.70;95.20;;;;;;4859962;29;20038;-77
2022/11/16 12:50:45;;;;;;;0.38;0.20;;;16.30;95.10;;;;;;4848201;29;20183;-77
2022/11/16 12:53:29;;;;;;;0.00;0.00;;;16.00;95.20;;;;;;4860012;29;20049;-76
2022/11/16 12:56:02;;;;;;;0.00;0.00;;;15.60;95.40;;;;;;4863873;29;20039;-78
2022/11/16 12:58:47;;;;;;;0.00;0.00;;;15.40;95.50;;;;;;4860496;29;20076;-76
2022/11/16 13:01:17;;;;;;;0.00;0.00;;;15.40;96.20;;;;;;4867011;29;20441;-74
2022/11/16 13:03:49;;;;;;;0.00;0.00;;;15.60;96.30;;;;;;4843685;29;20119;-78
2022/11/16 13:06:25;;;;;;;0.00;0.00;;;15.50;96.10;;;;;;4864584;29;20033;-78
2022/11/16 13:09:17;;;;;;;0.00;0.00;;;15.30;96.20;;;;;;4878357;29;20021;-77
2022/11/16 13:11:47;;;;;;;0.00;0.00;;;15.30;96.60;;;;;;4871007;29;20040;-77
2022/11/16 13:14:18;;;;;;;0.00;0.00;;;15.40;96.50;;;;;;4860977;29;20033;-77
2022/11/16 13:16:45;;;;;;;0.00;0.00;;;15.30;96.30;;;;;;4858123;29;20025;-75
2022/11/16 13:19:13;;;;;;;0.00;0.00;;;15.30;96.20;;;;;;4859308;29;20034;-76
2022/11/16 13:21:55;;;;;;;0.00;0.00;;;15.20;96.00;;;;;;4863076;29;20104;-76
2022/11/16 13:24:49;;;;;;;0.00;0.00;;;15.20;95.80;;;;;;4860283;29;20028;-79
2022/11/16 13:27:40;;;;;;;0.00;0.00;;;15.10;95.70;;;;;;4849639;29;20025;-76
2022/11/16 13:30:23;;;;;;;0.00;0.00;;;15.10;95.70;;;;;;4864013;29;20113;-76
2022/11/16 13:33:30;;;;;;;0.00;0.00;;;15.10;95.70;;;;;;4873247;29;20179;-75
2022/11/16 13:35:55;;;;;;;0.00;0.00;;;15.00;95.70;;;;;;4812237;29;20481;-74
2022/11/16 13:38:53;;;;;;;0.00;0.00;;;15.00;95.70;;;;;;4848366;29;20137;-76
2022/11/16 13:41:38;;;;;;;0.00;0.00;;;15.00;95.60;;;;;;4873641;29;20037;-75
2022/11/16 13:44:26;;;;;;;0.00;0.00;;;15.00;95.60;;;;;;4859663;29;20104;-75